sensor_id;sensor_type;location;lat;lon;timestamp;P1;durP1;ratioP1;P2;durP2;ratioP2
36715;SDS011;22699;51.034;3.730;2022-10-20T00:01:11;17.88;;;11.77;;
36715;SDS011;22699;51.034;3.730;2022-10-20T00:03:38;20.33;;;12.77;;
36715;SDS011;22699;51.034;3.730;2022-10-20T00:08:38;24.35;;;13.02;;
36715;SDS011;22699;51.034;3.730;2022-10-20T00:11:05;16.52;;;11.80;;
36715;SDS011;22699;51.034;3.730;2022-10-20T00:13:34;18.65;;;13.35;;
36715;SDS011;22699;51.034;3.730;2022-10-20T00:16:00;17.23;;;12.55;;
36715;SDS011;22699;51.034;3.730;2022-10-20T00:18:26;18.02;;;12.13;;
36715;SDS011;22699;51.034;3.730;2022-10-20T00:20:53;17.52;;;13.07;;
36715;SDS011;22699;51.034;3.730;2022-10-20T00:23:20;16.02;;;12.00;;
36715;SDS011;22699;51.034;3.730;2022-10-20T00:25:58;19.83;;;13.25;;
36715;SDS011;22699;51.034;3.730;2022-10-20T00:28:25;18.25;;;12.35;;
36715;SDS011;22699;51.034;3.730;2022-10-20T00:30:53;16.98;;;12.50;;
36715;SDS011;22699;51.034;3.730;2022-10-20T00:33:19;20.40;;;12.52;;
36715;SDS011;22699;51.034;3.730;2022-10-20T00:35:46;22.63;;;14.13;;
36715;SDS011;22699;51.034;3.730;2022-10-20T00:38:11;19.67;;;13.55;;
36715;SDS011;22699;51.034;3.730;2022-10-20T00:40:37;18.33;;;12.50;;
36715;SDS011;22699;51.034;3.730;2022-10-20T00:43:03;18.95;;;13.45;;
36715;SDS011;22699;51.034;3.730;2022-10-20T00:45:28;18.40;;;13.90;;
36715;SDS011;22699;51.034;3.730;2022-10-20T00:47:58;20.73;;;13.93;;
36715;SDS011;22699;51.034;3.730;2022-10-20T00:50:30;24.08;;;14.50;;
36715;SDS011;22699;51.034;3.730;2022-10-20T00:53:05;18.90;;;13.40;;
36715;SDS011;22699;51.034;3.730;2022-10-20T00:58:02;18.63;;;14.30;;
36715;SDS011;22699;51.034;3.730;2022-10-20T01:00:28;16.00;;;13.40;;
36715;SDS011;22699;51.034;3.730;2022-10-20T01:02:57;16.17;;;13.85;;
36715;SDS011;22699;51.034;3.730;2022-10-20T01:07:54;21.00;;;13.35;;
36715;SDS011;22699;51.034;3.730;2022-10-20T01:10:22;18.10;;;14.02;;
36715;SDS011;22699;51.034;3.730;2022-10-20T01:18:46;20.80;;;14.65;;
36715;SDS011;22699;51.034;3.730;2022-10-20T01:21:21;23.75;;;15.80;;
36715;SDS011;22699;51.034;3.730;2022-10-20T01:24:18;20.38;;;15.50;;
36715;SDS011;22699;51.034;3.730;2022-10-20T01:30:16;19.60;;;13.57;;
36715;SDS011;22699;51.034;3.730;2022-10-20T01:38:29;23.23;;;13.98;;
36715;SDS011;22699;51.034;3.730;2022-10-20T01:41:08;18.00;;;13.68;;
36715;SDS011;22699;51.034;3.730;2022-10-20T01:43:52;20.38;;;13.93;;
36715;SDS011;22699;51.034;3.730;2022-10-20T01:48:49;19.25;;;14.15;;
36715;SDS011;22699;51.034;3.730;2022-10-20T01:51:17;20.25;;;14.85;;
36715;SDS011;22699;51.034;3.730;2022-10-20T01:53:43;20.02;;;14.45;;
36715;SDS011;22699;51.034;3.730;2022-10-20T01:56:14;20.17;;;14.68;;
36715;SDS011;22699;51.034;3.730;2022-10-20T02:04:37;19.05;;;15.18;;
36715;SDS011;22699;51.034;3.730;2022-10-20T02:07:31;21.33;;;14.75;;
36715;SDS011;22699;51.034;3.730;2022-10-20T02:10:43;19.70;;;14.73;;
36715;SDS011;22699;51.034;3.730;2022-10-20T02:12:47;18.20;;;13.88;;
36715;SDS011;22699;51.034;3.730;2022-10-20T02:15:23;19.15;;;14.65;;
36715;SDS011;22699;51.034;3.730;2022-10-20T02:17:53;23.05;;;14.80;;
36715;SDS011;22699;51.034;3.730;2022-10-20T02:20:25;22.05;;;14.32;;
36715;SDS011;22699;51.034;3.730;2022-10-20T02:22:53;19.88;;;14.23;;
36715;SDS011;22699;51.034;3.730;2022-10-20T02:25:21;22.88;;;14.75;;
36715;SDS011;22699;51.034;3.730;2022-10-20T02:27:49;20.45;;;13.43;;
36715;SDS011;22699;51.034;3.730;2022-10-20T02:30:16;20.05;;;14.30;;
36715;SDS011;22699;51.034;3.730;2022-10-20T02:32:45;19.75;;;14.27;;
36715;SDS011;22699;51.034;3.730;2022-10-20T02:35:35;20.95;;;14.10;;
36715;SDS011;22699;51.034;3.730;2022-10-20T02:38:01;21.33;;;15.40;;
36715;SDS011;22699;51.034;3.730;2022-10-20T02:40:28;16.23;;;12.80;;
36715;SDS011;22699;51.034;3.730;2022-10-20T02:42:54;19.20;;;14.13;;
36715;SDS011;22699;51.034;3.730;2022-10-20T02:45:20;19.92;;;15.18;;
36715;SDS011;22699;51.034;3.730;2022-10-20T02:47:45;24.75;;;14.13;;
36715;SDS011;22699;51.034;3.730;2022-10-20T02:50:11;19.70;;;14.60;;
36715;SDS011;22699;51.034;3.730;2022-10-20T02:52:37;21.92;;;16.42;;
36715;SDS011;22699;51.034;3.730;2022-10-20T02:55:03;20.15;;;14.63;;
36715;SDS011;22699;51.034;3.730;2022-10-20T02:57:30;25.27;;;16.35;;
36715;SDS011;22699;51.034;3.730;2022-10-20T02:59:56;20.50;;;15.88;;
36715;SDS011;22699;51.034;3.730;2022-10-20T03:02:21;18.55;;;14.95;;
36715;SDS011;22699;51.034;3.730;2022-10-20T03:04:47;22.45;;;14.60;;
36715;SDS011;22699;51.034;3.730;2022-10-20T03:07:12;18.88;;;14.80;;
36715;SDS011;22699;51.034;3.730;2022-10-20T03:09:44;21.23;;;15.85;;
36715;SDS011;22699;51.034;3.730;2022-10-20T03:12:10;25.38;;;17.08;;
36715;SDS011;22699;51.034;3.730;2022-10-20T03:14:36;21.38;;;15.80;;
36715;SDS011;22699;51.034;3.730;2022-10-20T03:17:03;24.65;;;17.08;;
36715;SDS011;22699;51.034;3.730;2022-10-20T03:19:29;20.52;;;15.23;;
36715;SDS011;22699;51.034;3.730;2022-10-20T03:21:55;23.58;;;17.15;;
36715;SDS011;22699;51.034;3.730;2022-10-20T03:24:20;22.52;;;16.15;;
36715;SDS011;22699;51.034;3.730;2022-10-20T03:26:47;21.90;;;16.27;;
36715;SDS011;22699;51.034;3.730;2022-10-20T03:29:12;20.17;;;16.08;;
36715;SDS011;22699;51.034;3.730;2022-10-20T03:31:38;20.40;;;15.50;;
36715;SDS011;22699;51.034;3.730;2022-10-20T03:34:06;19.02;;;14.70;;
36715;SDS011;22699;51.034;3.730;2022-10-20T03:36:32;19.85;;;14.60;;
36715;SDS011;22699;51.034;3.730;2022-10-20T03:38:58;20.73;;;14.70;;
36715;SDS011;22699;51.034;3.730;2022-10-20T03:41:24;20.48;;;14.82;;
36715;SDS011;22699;51.034;3.730;2022-10-20T03:43:50;20.85;;;14.93;;
36715;SDS011;22699;51.034;3.730;2022-10-20T03:46:17;25.17;;;16.52;;
36715;SDS011;22699;51.034;3.730;2022-10-20T03:48:44;21.60;;;15.35;;
36715;SDS011;22699;51.034;3.730;2022-10-20T03:51:09;22.55;;;14.70;;
36715;SDS011;22699;51.034;3.730;2022-10-20T03:53:40;25.33;;;16.30;;
36715;SDS011;22699;51.034;3.730;2022-10-20T03:56:06;20.00;;;14.85;;
36715;SDS011;22699;51.034;3.730;2022-10-20T04:01:06;20.58;;;15.68;;
36715;SDS011;22699;51.034;3.730;2022-10-20T04:03:34;23.85;;;16.08;;
36715;SDS011;22699;51.034;3.730;2022-10-20T04:06:01;23.38;;;16.52;;
36715;SDS011;22699;51.034;3.730;2022-10-20T04:08:28;21.88;;;16.42;;
36715;SDS011;22699;51.034;3.730;2022-10-20T04:10:56;24.15;;;16.17;;
36715;SDS011;22699;51.034;3.730;2022-10-20T04:13:25;22.83;;;16.98;;
36715;SDS011;22699;51.034;3.730;2022-10-20T04:18:20;23.50;;;16.55;;
36715;SDS011;22699;51.034;3.730;2022-10-20T04:20:48;26.17;;;17.73;;
36715;SDS011;22699;51.034;3.730;2022-10-20T04:23:15;22.42;;;16.52;;
36715;SDS011;22699;51.034;3.730;2022-10-20T04:25:41;26.63;;;17.35;;
36715;SDS011;22699;51.034;3.730;2022-10-20T04:28:17;25.15;;;15.95;;
36715;SDS011;22699;51.034;3.730;2022-10-20T04:30:44;24.42;;;17.38;;
36715;SDS011;22699;51.034;3.730;2022-10-20T04:33:11;21.50;;;16.73;;
36715;SDS011;22699;51.034;3.730;2022-10-20T04:35:38;23.02;;;16.25;;
36715;SDS011;22699;51.034;3.730;2022-10-20T04:38:05;25.52;;;16.33;;
36715;SDS011;22699;51.034;3.730;2022-10-20T04:40:36;23.00;;;16.35;;
36715;SDS011;22699;51.034;3.730;2022-10-20T04:43:05;23.42;;;15.77;;
36715;SDS011;22699;51.034;3.730;2022-10-20T04:45:31;22.75;;;16.17;;
36715;SDS011;22699;51.034;3.730;2022-10-20T04:47:56;22.77;;;16.35;;
36715;SDS011;22699;51.034;3.730;2022-10-20T04:50:24;24.05;;;15.73;;
36715;SDS011;22699;51.034;3.730;2022-10-20T04:52:51;19.40;;;15.00;;
36715;SDS011;22699;51.034;3.730;2022-10-20T04:55:16;21.23;;;15.77;;
36715;SDS011;22699;51.034;3.730;2022-10-20T04:57:44;20.13;;;14.55;;
36715;SDS011;22699;51.034;3.730;2022-10-20T05:00:10;19.65;;;15.00;;
36715;SDS011;22699;51.034;3.730;2022-10-20T05:02:39;20.77;;;15.50;;
36715;SDS011;22699;51.034;3.730;2022-10-20T05:05:05;23.90;;;16.17;;
36715;SDS011;22699;51.034;3.730;2022-10-20T05:07:34;19.88;;;15.45;;
36715;SDS011;22699;51.034;3.730;2022-10-20T05:12:30;24.33;;;15.73;;
36715;SDS011;22699;51.034;3.730;2022-10-20T05:15:02;29.02;;;16.67;;
36715;SDS011;22699;51.034;3.730;2022-10-20T05:17:28;19.42;;;14.57;;
36715;SDS011;22699;51.034;3.730;2022-10-20T05:19:54;28.40;;;14.65;;
36715;SDS011;22699;51.034;3.730;2022-10-20T05:22:20;23.90;;;16.67;;
36715;SDS011;22699;51.034;3.730;2022-10-20T05:24:46;22.77;;;14.73;;
36715;SDS011;22699;51.034;3.730;2022-10-20T05:27:14;23.02;;;16.25;;
36715;SDS011;22699;51.034;3.730;2022-10-20T05:29:40;21.52;;;16.33;;
36715;SDS011;22699;51.034;3.730;2022-10-20T05:32:05;21.13;;;15.82;;
36715;SDS011;22699;51.034;3.730;2022-10-20T05:34:31;19.70;;;15.40;;
36715;SDS011;22699;51.034;3.730;2022-10-20T05:36:57;22.30;;;15.88;;
36715;SDS011;22699;51.034;3.730;2022-10-20T05:39:22;22.15;;;16.00;;
36715;SDS011;22699;51.034;3.730;2022-10-20T05:41:50;21.58;;;14.73;;
36715;SDS011;22699;51.034;3.730;2022-10-20T05:44:16;19.42;;;14.55;;
36715;SDS011;22699;51.034;3.730;2022-10-20T05:46:42;21.23;;;14.68;;
36715;SDS011;22699;51.034;3.730;2022-10-20T05:49:12;19.67;;;15.32;;
36715;SDS011;22699;51.034;3.730;2022-10-20T05:51:39;21.25;;;15.05;;
36715;SDS011;22699;51.034;3.730;2022-10-20T05:54:05;24.52;;;15.18;;
36715;SDS011;22699;51.034;3.730;2022-10-20T05:56:30;18.48;;;14.15;;
36715;SDS011;22699;51.034;3.730;2022-10-20T05:58:57;24.10;;;16.88;;
36715;SDS011;22699;51.034;3.730;2022-10-20T06:01:24;21.27;;;16.08;;
36715;SDS011;22699;51.034;3.730;2022-10-20T06:03:55;24.15;;;16.08;;
36715;SDS011;22699;51.034;3.730;2022-10-20T06:06:27;24.50;;;15.55;;
36715;SDS011;22699;51.034;3.730;2022-10-20T06:08:54;19.15;;;15.05;;
36715;SDS011;22699;51.034;3.730;2022-10-20T06:11:25;20.13;;;14.73;;
36715;SDS011;22699;51.034;3.730;2022-10-20T06:13:52;21.77;;;14.18;;
36715;SDS011;22699;51.034;3.730;2022-10-20T06:16:22;18.17;;;13.68;;
36715;SDS011;22699;51.034;3.730;2022-10-20T06:18:51;20.70;;;15.05;;
36715;SDS011;22699;51.034;3.730;2022-10-20T06:21:27;17.75;;;13.73;;
36715;SDS011;22699;51.034;3.730;2022-10-20T06:24:04;22.20;;;13.88;;
36715;SDS011;22699;51.034;3.730;2022-10-20T06:26:33;16.70;;;13.55;;
36715;SDS011;22699;51.034;3.730;2022-10-20T06:29:06;19.30;;;13.15;;
36715;SDS011;22699;51.034;3.730;2022-10-20T06:31:36;19.15;;;14.70;;
36715;SDS011;22699;51.034;3.730;2022-10-20T06:34:04;20.10;;;13.73;;
36715;SDS011;22699;51.034;3.730;2022-10-20T06:36:33;19.38;;;13.18;;
36715;SDS011;22699;51.034;3.730;2022-10-20T06:39:00;20.70;;;13.18;;
36715;SDS011;22699;51.034;3.730;2022-10-20T06:41:28;23.42;;;14.20;;
36715;SDS011;22699;51.034;3.730;2022-10-20T06:43:55;21.10;;;13.15;;
36715;SDS011;22699;51.034;3.730;2022-10-20T06:48:53;28.80;;;16.25;;
36715;SDS011;22699;51.034;3.730;2022-10-20T06:51:20;19.52;;;12.82;;
36715;SDS011;22699;51.034;3.730;2022-10-20T06:53:46;23.63;;;13.88;;
36715;SDS011;22699;51.034;3.730;2022-10-20T06:56:23;20.17;;;13.45;;
36715;SDS011;22699;51.034;3.730;2022-10-20T06:58:51;14.90;;;13.05;;
36715;SDS011;22699;51.034;3.730;2022-10-20T07:03:48;16.97;;;12.67;;
36715;SDS011;22699;51.034;3.730;2022-10-20T07:06:16;23.85;;;12.52;;
36715;SDS011;22699;51.034;3.730;2022-10-20T07:08:51;17.55;;;12.02;;
36715;SDS011;22699;51.034;3.730;2022-10-20T07:11:18;17.27;;;12.60;;
36715;SDS011;22699;51.034;3.730;2022-10-20T07:13:45;19.23;;;12.23;;
36715;SDS011;22699;51.034;3.730;2022-10-20T07:16:13;19.17;;;12.82;;
36715;SDS011;22699;51.034;3.730;2022-10-20T07:18:41;17.55;;;11.52;;
36715;SDS011;22699;51.034;3.730;2022-10-20T07:21:08;16.33;;;12.38;;
36715;SDS011;22699;51.034;3.730;2022-10-20T07:23:42;23.17;;;12.20;;
36715;SDS011;22699;51.034;3.730;2022-10-20T07:28:49;15.40;;;10.98;;
36715;SDS011;22699;51.034;3.730;2022-10-20T07:31:23;16.80;;;11.18;;
36715;SDS011;22699;51.034;3.730;2022-10-20T07:33:51;22.83;;;11.60;;
36715;SDS011;22699;51.034;3.730;2022-10-20T07:36:23;19.05;;;12.02;;
36715;SDS011;22699;51.034;3.730;2022-10-20T07:38:51;18.65;;;11.95;;
36715;SDS011;22699;51.034;3.730;2022-10-20T07:41:18;24.02;;;12.43;;
36715;SDS011;22699;51.034;3.730;2022-10-20T07:43:45;18.17;;;12.82;;
36715;SDS011;22699;51.034;3.730;2022-10-20T07:46:14;23.38;;;12.65;;
36715;SDS011;22699;51.034;3.730;2022-10-20T07:48:41;16.67;;;11.88;;
36715;SDS011;22699;51.034;3.730;2022-10-20T07:51:14;13.18;;;11.32;;
36715;SDS011;22699;51.034;3.730;2022-10-20T07:53:43;14.63;;;11.85;;
36715;SDS011;22699;51.034;3.730;2022-10-20T07:56:10;16.60;;;12.55;;
36715;SDS011;22699;51.034;3.730;2022-10-20T07:58:35;19.48;;;12.60;;
36715;SDS011;22699;51.034;3.730;2022-10-20T08:01:02;16.13;;;12.52;;
36715;SDS011;22699;51.034;3.730;2022-10-20T08:03:29;15.80;;;11.50;;
36715;SDS011;22699;51.034;3.730;2022-10-20T08:05:55;18.60;;;12.38;;
36715;SDS011;22699;51.034;3.730;2022-10-20T08:08:22;14.27;;;11.52;;
36715;SDS011;22699;51.034;3.730;2022-10-20T08:10:48;15.70;;;11.45;;
36715;SDS011;22699;51.034;3.730;2022-10-20T08:13:13;19.05;;;13.00;;
36715;SDS011;22699;51.034;3.730;2022-10-20T08:15:39;18.55;;;12.32;;
36715;SDS011;22699;51.034;3.730;2022-10-20T08:18:05;16.20;;;11.05;;
36715;SDS011;22699;51.034;3.730;2022-10-20T08:20:30;17.17;;;12.05;;
36715;SDS011;22699;51.034;3.730;2022-10-20T08:22:57;17.13;;;11.80;;
36715;SDS011;22699;51.034;3.730;2022-10-20T08:25:23;17.35;;;11.52;;
36715;SDS011;22699;51.034;3.730;2022-10-20T08:27:49;15.40;;;11.40;;
36715;SDS011;22699;51.034;3.730;2022-10-20T08:30:15;17.48;;;11.57;;
36715;SDS011;22699;51.034;3.730;2022-10-20T08:32:40;20.25;;;12.02;;
36715;SDS011;22699;51.034;3.730;2022-10-20T08:35:06;16.25;;;11.68;;
36715;SDS011;22699;51.034;3.730;2022-10-20T08:37:32;16.27;;;11.38;;
36715;SDS011;22699;51.034;3.730;2022-10-20T08:39:58;13.50;;;10.88;;
36715;SDS011;22699;51.034;3.730;2022-10-20T08:42:24;24.00;;;11.70;;
36715;SDS011;22699;51.034;3.730;2022-10-20T08:44:50;14.85;;;11.23;;
36715;SDS011;22699;51.034;3.730;2022-10-20T08:47:28;12.73;;;10.95;;
36715;SDS011;22699;51.034;3.730;2022-10-20T08:49:55;14.65;;;12.07;;
36715;SDS011;22699;51.034;3.730;2022-10-20T08:52:23;16.83;;;11.65;;
36715;SDS011;22699;51.034;3.730;2022-10-20T08:54:50;18.00;;;12.82;;
36715;SDS011;22699;51.034;3.730;2022-10-20T08:57:25;20.05;;;11.95;;
36715;SDS011;22699;51.034;3.730;2022-10-20T09:02:51;17.13;;;11.10;;
36715;SDS011;22699;51.034;3.730;2022-10-20T09:05:18;17.52;;;11.52;;
36715;SDS011;22699;51.034;3.730;2022-10-20T09:07:48;15.55;;;10.82;;
36715;SDS011;22699;51.034;3.730;2022-10-20T09:10:22;13.68;;;11.43;;
36715;SDS011;22699;51.034;3.730;2022-10-20T09:13:00;15.55;;;11.98;;
36715;SDS011;22699;51.034;3.730;2022-10-20T09:15:31;16.10;;;11.13;;
36715;SDS011;22699;51.034;3.730;2022-10-20T09:18:05;18.88;;;12.40;;
36715;SDS011;22699;51.034;3.730;2022-10-20T09:20:38;23.70;;;14.77;;
36715;SDS011;22699;51.034;3.730;2022-10-20T09:23:14;13.65;;;11.10;;
36715;SDS011;22699;51.034;3.730;2022-10-20T09:25:42;16.85;;;11.23;;
36715;SDS011;22699;51.034;3.730;2022-10-20T09:28:25;17.33;;;11.52;;
36715;SDS011;22699;51.034;3.730;2022-10-20T09:30:53;13.70;;;10.52;;
36715;SDS011;22699;51.034;3.730;2022-10-20T09:35:48;17.23;;;11.80;;
36715;SDS011;22699;51.034;3.730;2022-10-20T09:38:17;15.27;;;11.18;;
36715;SDS011;22699;51.034;3.730;2022-10-20T09:40:56;16.58;;;11.05;;
36715;SDS011;22699;51.034;3.730;2022-10-20T09:44:03;18.85;;;12.05;;
36715;SDS011;22699;51.034;3.730;2022-10-20T09:47:05;15.10;;;11.73;;
36715;SDS011;22699;51.034;3.730;2022-10-20T09:49:35;15.10;;;10.63;;
36715;SDS011;22699;51.034;3.730;2022-10-20T09:52:21;12.88;;;10.82;;
36715;SDS011;22699;51.034;3.730;2022-10-20T09:54:53;15.10;;;10.10;;
36715;SDS011;22699;51.034;3.730;2022-10-20T09:57:24;16.60;;;10.75;;
36715;SDS011;22699;51.034;3.730;2022-10-20T09:59:52;19.67;;;11.10;;
36715;SDS011;22699;51.034;3.730;2022-10-20T10:04:53;18.70;;;12.48;;
36715;SDS011;22699;51.034;3.730;2022-10-20T10:07:36;15.40;;;10.63;;
36715;SDS011;22699;51.034;3.730;2022-10-20T10:10:04;13.07;;;11.05;;
36715;SDS011;22699;51.034;3.730;2022-10-20T10:12:49;17.45;;;11.18;;
36715;SDS011;22699;51.034;3.730;2022-10-20T10:17:57;18.05;;;12.05;;
36715;SDS011;22699;51.034;3.730;2022-10-20T10:20:35;20.83;;;12.95;;
36715;SDS011;22699;51.034;3.730;2022-10-20T10:23:22;19.70;;;12.60;;
36715;SDS011;22699;51.034;3.730;2022-10-20T10:25:50;20.50;;;12.90;;
36715;SDS011;22699;51.034;3.730;2022-10-20T10:28:21;20.60;;;12.90;;
36715;SDS011;22699;51.034;3.730;2022-10-20T10:31:06;18.52;;;12.23;;
36715;SDS011;22699;51.034;3.730;2022-10-20T10:33:34;14.38;;;12.60;;
36715;SDS011;22699;51.034;3.730;2022-10-20T10:36:01;20.63;;;12.23;;
36715;SDS011;22699;51.034;3.730;2022-10-20T10:38:31;16.83;;;12.27;;
36715;SDS011;22699;51.034;3.730;2022-10-20T10:44:20;13.68;;;11.00;;
36715;SDS011;22699;51.034;3.730;2022-10-20T10:50:38;11.50;;;9.93;;
36715;SDS011;22699;51.034;3.730;2022-10-20T10:53:38;15.93;;;9.30;;
36715;SDS011;22699;51.034;3.730;2022-10-20T11:04:25;14.10;;;9.63;;
36715;SDS011;22699;51.034;3.730;2022-10-20T11:07:00;12.07;;;9.60;;
36715;SDS011;22699;51.034;3.730;2022-10-20T11:28:50;15.55;;;8.35;;
36715;SDS011;22699;51.034;3.730;2022-10-20T11:31:40;15.40;;;8.63;;
36715;SDS011;22699;51.034;3.730;2022-10-20T11:37:14;13.90;;;8.35;;
36715;SDS011;22699;51.034;3.730;2022-10-20T11:42:36;13.52;;;7.90;;
36715;SDS011;22699;51.034;3.730;2022-10-20T11:45:41;10.38;;;7.50;;
36715;SDS011;22699;51.034;3.730;2022-10-20T11:48:32;10.60;;;7.25;;
36715;SDS011;22699;51.034;3.730;2022-10-20T12:19:26;9.70;;;4.00;;
36715;SDS011;22699;51.034;3.730;2022-10-20T12:24:31;6.95;;;3.72;;
36715;SDS011;22699;51.034;3.730;2022-10-20T12:34:55;6.97;;;3.83;;
36715;SDS011;22699;51.034;3.730;2022-10-20T12:42:45;5.47;;;2.55;;
36715;SDS011;22699;51.034;3.730;2022-10-20T12:47:52;5.80;;;2.72;;
36715;SDS011;22699;51.034;3.730;2022-10-20T12:52:49;6.45;;;2.60;;
36715;SDS011;22699;51.034;3.730;2022-10-20T12:55:18;10.90;;;2.97;;
36715;SDS011;22699;51.034;3.730;2022-10-20T12:57:49;7.50;;;2.63;;
36715;SDS011;22699;51.034;3.730;2022-10-20T13:09:17;4.93;;;3.13;;
36715;SDS011;22699;51.034;3.730;2022-10-20T13:12:23;9.05;;;3.13;;
36715;SDS011;22699;51.034;3.730;2022-10-20T13:14:53;9.95;;;3.67;;
36715;SDS011;22699;51.034;3.730;2022-10-20T13:17:43;5.53;;;2.63;;
36715;SDS011;22699;51.034;3.730;2022-10-20T13:26:52;5.55;;;2.28;;
36715;SDS011;22699;51.034;3.730;2022-10-20T13:29:23;5.35;;;2.67;;
36715;SDS011;22699;51.034;3.730;2022-10-20T13:35:27;8.57;;;2.40;;
36715;SDS011;22699;51.034;3.730;2022-10-20T13:41:00;4.32;;;2.42;;
36715;SDS011;22699;51.034;3.730;2022-10-20T13:46:39;5.15;;;2.17;;
36715;SDS011;22699;51.034;3.730;2022-10-20T13:51:48;6.63;;;2.55;;
36715;SDS011;22699;51.034;3.730;2022-10-20T13:54:21;7.05;;;2.30;;
36715;SDS011;22699;51.034;3.730;2022-10-20T13:56:53;8.80;;;2.67;;
36715;SDS011;22699;51.034;3.730;2022-10-20T13:59:28;7.43;;;2.88;;
36715;SDS011;22699;51.034;3.730;2022-10-20T14:01:56;7.25;;;2.08;;
36715;SDS011;22699;51.034;3.730;2022-10-20T14:04:25;6.55;;;2.25;;
36715;SDS011;22699;51.034;3.730;2022-10-20T14:07:02;5.45;;;2.20;;
36715;SDS011;22699;51.034;3.730;2022-10-20T14:09:32;6.43;;;2.22;;
36715;SDS011;22699;51.034;3.730;2022-10-20T14:14:51;6.43;;;2.55;;
36715;SDS011;22699;51.034;3.730;2022-10-20T14:17:21;4.57;;;2.60;;
36715;SDS011;22699;51.034;3.730;2022-10-20T14:19:48;5.30;;;2.13;;
36715;SDS011;22699;51.034;3.730;2022-10-20T14:24:40;4.95;;;2.47;;
36715;SDS011;22699;51.034;3.730;2022-10-20T14:27:23;5.10;;;2.27;;
36715;SDS011;22699;51.034;3.730;2022-10-20T14:32:45;3.20;;;1.63;;
36715;SDS011;22699;51.034;3.730;2022-10-20T14:35:26;4.95;;;2.17;;
36715;SDS011;22699;51.034;3.730;2022-10-20T14:38:25;6.85;;;2.17;;
36715;SDS011;22699;51.034;3.730;2022-10-20T14:43:37;5.70;;;2.05;;
36715;SDS011;22699;51.034;3.730;2022-10-20T14:46:23;5.93;;;1.90;;
36715;SDS011;22699;51.034;3.730;2022-10-20T14:49:03;11.23;;;2.67;;
36715;SDS011;22699;51.034;3.730;2022-10-20T14:51:39;3.13;;;1.70;;
36715;SDS011;22699;51.034;3.730;2022-10-20T14:54:25;5.30;;;1.92;;
36715;SDS011;22699;51.034;3.730;2022-10-20T14:59:27;3.20;;;1.70;;
36715;SDS011;22699;51.034;3.730;2022-10-20T15:04:34;6.70;;;2.17;;
36715;SDS011;22699;51.034;3.730;2022-10-20T15:09:46;4.97;;;1.70;;
36715;SDS011;22699;51.034;3.730;2022-10-20T15:12:17;4.20;;;2.03;;
36715;SDS011;22699;51.034;3.730;2022-10-20T15:14:46;7.40;;;2.08;;
36715;SDS011;22699;51.034;3.730;2022-10-20T15:17:30;7.22;;;2.65;;
36715;SDS011;22699;51.034;3.730;2022-10-20T15:20:27;3.97;;;1.73;;
36715;SDS011;22699;51.034;3.730;2022-10-20T15:25:52;6.20;;;2.08;;
36715;SDS011;22699;51.034;3.730;2022-10-20T15:31:25;6.57;;;2.42;;
36715;SDS011;22699;51.034;3.730;2022-10-20T15:33:53;10.75;;;1.90;;
36715;SDS011;22699;51.034;3.730;2022-10-20T15:36:20;3.83;;;1.40;;
36715;SDS011;22699;51.034;3.730;2022-10-20T15:38:52;4.43;;;1.83;;
36715;SDS011;22699;51.034;3.730;2022-10-20T15:41:18;3.72;;;1.40;;
36715;SDS011;22699;51.034;3.730;2022-10-20T15:43:47;8.73;;;1.63;;
36715;SDS011;22699;51.034;3.730;2022-10-20T15:46:12;8.20;;;1.95;;
36715;SDS011;22699;51.034;3.730;2022-10-20T15:48:45;1.95;;;1.33;;
36715;SDS011;22699;51.034;3.730;2022-10-20T15:51:16;3.45;;;1.42;;
36715;SDS011;22699;51.034;3.730;2022-10-20T15:53:46;7.60;;;1.70;;
36715;SDS011;22699;51.034;3.730;2022-10-20T15:56:13;5.70;;;1.67;;
36715;SDS011;22699;51.034;3.730;2022-10-20T15:58:42;9.32;;;2.53;;
36715;SDS011;22699;51.034;3.730;2022-10-20T16:01:10;3.20;;;1.83;;
36715;SDS011;22699;51.034;3.730;2022-10-20T16:03:36;5.85;;;1.88;;
36715;SDS011;22699;51.034;3.730;2022-10-20T16:06:05;5.63;;;2.20;;
36715;SDS011;22699;51.034;3.730;2022-10-20T16:08:31;4.85;;;2.17;;
36715;SDS011;22699;51.034;3.730;2022-10-20T16:11:03;6.05;;;1.67;;
36715;SDS011;22699;51.034;3.730;2022-10-20T16:13:30;5.53;;;1.95;;
36715;SDS011;22699;51.034;3.730;2022-10-20T16:15:59;8.68;;;2.20;;
36715;SDS011;22699;51.034;3.730;2022-10-20T16:18:26;7.00;;;3.08;;
36715;SDS011;22699;51.034;3.730;2022-10-20T16:20:51;4.20;;;1.77;;
36715;SDS011;22699;51.034;3.730;2022-10-20T16:23:17;4.40;;;1.95;;
36715;SDS011;22699;51.034;3.730;2022-10-20T16:25:44;5.35;;;2.38;;
36715;SDS011;22699;51.034;3.730;2022-10-20T16:28:13;4.25;;;2.30;;
36715;SDS011;22699;51.034;3.730;2022-10-20T16:30:38;3.63;;;1.67;;
36715;SDS011;22699;51.034;3.730;2022-10-20T16:33:04;4.13;;;1.90;;
36715;SDS011;22699;51.034;3.730;2022-10-20T16:35:30;3.78;;;1.80;;
36715;SDS011;22699;51.034;3.730;2022-10-20T16:37:56;5.10;;;1.98;;
36715;SDS011;22699;51.034;3.730;2022-10-20T16:40:23;4.45;;;2.10;;
36715;SDS011;22699;51.034;3.730;2022-10-20T16:42:49;5.65;;;2.08;;
36715;SDS011;22699;51.034;3.730;2022-10-20T16:45:14;5.95;;;2.13;;
36715;SDS011;22699;51.034;3.730;2022-10-20T16:47:40;3.85;;;1.55;;
36715;SDS011;22699;51.034;3.730;2022-10-20T16:50:06;3.75;;;1.98;;
36715;SDS011;22699;51.034;3.730;2022-10-20T16:52:32;3.95;;;1.90;;
36715;SDS011;22699;51.034;3.730;2022-10-20T16:54:58;4.60;;;2.60;;
36715;SDS011;22699;51.034;3.730;2022-10-20T16:57:23;4.30;;;1.95;;
36715;SDS011;22699;51.034;3.730;2022-10-20T16:59:50;5.93;;;2.10;;
36715;SDS011;22699;51.034;3.730;2022-10-20T17:02:16;4.47;;;2.72;;
36715;SDS011;22699;51.034;3.730;2022-10-20T17:04:47;5.45;;;2.42;;
36715;SDS011;22699;51.034;3.730;2022-10-20T17:07:19;6.60;;;2.78;;
36715;SDS011;22699;51.034;3.730;2022-10-20T17:09:45;5.28;;;2.50;;
36715;SDS011;22699;51.034;3.730;2022-10-20T17:12:12;3.15;;;2.28;;
36715;SDS011;22699;51.034;3.730;2022-10-20T17:14:39;4.70;;;2.33;;
36715;SDS011;22699;51.034;3.730;2022-10-20T17:17:05;4.20;;;2.65;;
36715;SDS011;22699;51.034;3.730;2022-10-20T17:19:32;4.80;;;2.92;;
36715;SDS011;22699;51.034;3.730;2022-10-20T17:24:27;5.80;;;2.83;;
36715;SDS011;22699;51.034;3.730;2022-10-20T17:29:21;3.45;;;2.47;;
36715;SDS011;22699;51.034;3.730;2022-10-20T17:31:48;3.88;;;2.67;;
36715;SDS011;22699;51.034;3.730;2022-10-20T17:34:15;6.43;;;3.42;;
36715;SDS011;22699;51.034;3.730;2022-10-20T17:36:44;6.18;;;2.97;;
36715;SDS011;22699;51.034;3.730;2022-10-20T17:39:11;10.07;;;4.20;;
36715;SDS011;22699;51.034;3.730;2022-10-20T17:41:41;7.47;;;3.92;;
36715;SDS011;22699;51.034;3.730;2022-10-20T17:44:08;5.22;;;3.67;;
36715;SDS011;22699;51.034;3.730;2022-10-20T17:46:37;7.53;;;4.35;;
36715;SDS011;22699;51.034;3.730;2022-10-20T17:49:03;5.63;;;3.85;;
36715;SDS011;22699;51.034;3.730;2022-10-20T17:51:29;8.35;;;3.92;;
36715;SDS011;22699;51.034;3.730;2022-10-20T17:53:55;10.77;;;4.28;;
36715;SDS011;22699;51.034;3.730;2022-10-20T17:56:28;6.28;;;3.42;;
36715;SDS011;22699;51.034;3.730;2022-10-20T17:58:59;7.05;;;4.22;;
36715;SDS011;22699;51.034;3.730;2022-10-20T18:01:30;9.00;;;4.00;;
36715;SDS011;22699;51.034;3.730;2022-10-20T18:04:05;5.68;;;3.95;;
36715;SDS011;22699;51.034;3.730;2022-10-20T18:06:32;6.47;;;3.50;;
36715;SDS011;22699;51.034;3.730;2022-10-20T18:09:09;4.35;;;3.50;;
36715;SDS011;22699;51.034;3.730;2022-10-20T18:14:09;6.00;;;4.57;;